createdAt,value
2023-07-24T00:03:29.599Z,6.20
2023-07-24T00:13:32.808Z,9.07
2023-07-24T00:23:36.458Z,7.10
2023-07-24T00:33:40.305Z,7.82
2023-07-24T00:53:46.349Z,6.53
2023-07-24T01:03:49.428Z,8.20
2023-07-24T01:14:06.405Z,6.37
2023-07-24T01:24:26.679Z,8.20
2023-07-24T01:34:29.616Z,6.12
2023-07-24T01:44:32.701Z,5.77
2023-07-24T01:54:35.573Z,6.70
2023-07-24T02:04:38.054Z,4.72
2023-07-24T02:14:40.403Z,5.90
2023-07-24T02:24:43.576Z,7.72
2023-07-24T02:34:46.637Z,9.47
2023-07-24T02:44:49.188Z,9.30
2023-07-24T02:54:51.730Z,7.93
2023-07-24T03:04:54.102Z,7.68
2023-07-24T03:14:56.545Z,8.13
2023-07-24T03:24:59.249Z,8.43
2023-07-24T03:35:01.633Z,7.43
2023-07-24T03:45:04.771Z,10.07
2023-07-24T03:55:09.593Z,8.27
2023-07-24T04:05:12.650Z,8.13
2023-07-24T04:15:15.410Z,8.47
2023-07-24T04:25:17.947Z,9.38
2023-07-24T04:35:21.029Z,7.62
2023-07-24T04:45:24.295Z,9.67
2023-07-24T04:55:27.396Z,9.18
2023-07-24T05:05:30.222Z,6.00
2023-07-24T05:15:33.418Z,6.33
2023-07-24T05:25:36.283Z,3.87
2023-07-24T05:35:39.512Z,4.80
2023-07-24T05:45:42.819Z,4.28
2023-07-24T05:55:46.354Z,4.30
2023-07-24T06:05:53.970Z,4.12
2023-07-24T06:15:56.564Z,5.70
2023-07-24T06:25:59.397Z,6.22
2023-07-24T06:36:02.662Z,4.87
2023-07-24T06:46:07.068Z,4.47
2023-07-24T06:56:11.180Z,3.80
2023-07-24T07:16:23.801Z,3.55
2023-07-24T07:26:27.003Z,5.80
2023-07-24T07:36:30.597Z,4.53
2023-07-24T07:46:34.392Z,4.82
2023-07-24T07:56:37.664Z,4.90
2023-07-24T08:06:40.529Z,5.87
2023-07-24T08:16:43.326Z,4.95
2023-07-24T08:26:46.900Z,5.45
2023-07-24T08:36:50.567Z,6.25
2023-07-24T08:46:54.311Z,5.37
2023-07-24T08:56:57.952Z,5.40
2023-07-24T09:07:01.049Z,4.70
2023-07-24T09:17:09.248Z,3.60
2023-07-24T09:27:13.982Z,2.25
2023-07-24T09:37:33.079Z,2.12
2023-07-24T09:47:55.076Z,3.47
2023-07-24T09:58:02.294Z,3.05
2023-07-24T10:08:06.957Z,9.30
2023-07-24T10:18:11.941Z,1.98
2023-07-24T10:28:17.982Z,2.03
2023-07-24T10:38:36.232Z,2.42
2023-07-24T10:48:45.801Z,4.97
2023-07-24T10:58:48.727Z,2.92
2023-07-24T11:09:02.436Z,2.57
2023-07-24T11:19:09.811Z,3.90
2023-07-24T11:29:15.564Z,4.35
2023-07-24T11:39:25.703Z,3.45
2023-07-24T11:49:32.611Z,3.22
2023-07-24T11:59:41.010Z,3.85
2023-07-24T12:09:54.089Z,5.40
2023-07-24T12:19:57.430Z,3.97
2023-07-24T12:40:05.473Z,4.17
2023-07-24T12:50:09.094Z,3.80
2023-07-24T13:00:13.114Z,3.83
2023-07-24T13:10:16.312Z,4.22
2023-07-24T13:20:19.798Z,3.60
2023-07-24T13:30:22.966Z,4.55
2023-07-24T13:40:27.416Z,4.30
2023-07-24T13:50:30.686Z,5.82
2023-07-24T14:00:34.055Z,9.55
2023-07-24T14:20:41.925Z,5.50
2023-07-24T14:30:44.786Z,6.68
2023-07-24T14:40:48.663Z,4.82
2023-07-24T14:50:51.678Z,4.93
2023-07-24T15:00:58.362Z,4.55
2023-07-24T15:11:02.034Z,3.40
2023-07-24T15:21:06.703Z,2.35
2023-07-24T15:31:12.616Z,3.42
2023-07-24T15:41:16.550Z,3.17
2023-07-24T15:51:19.791Z,2.53
2023-07-24T16:01:25.789Z,3.97
2023-07-24T16:11:30.414Z,2.20
2023-07-24T16:21:34.294Z,3.47
2023-07-24T16:31:38.052Z,7.18
2023-07-24T16:41:41.482Z,2.92
2023-07-24T16:51:44.812Z,3.55
2023-07-24T17:01:47.750Z,2.42
2023-07-24T17:11:52.837Z,2.53
2023-07-24T17:21:56.825Z,2.67
2023-07-24T17:32:01.969Z,2.85
2023-07-24T17:42:05.491Z,3.12
2023-07-24T17:52:10.433Z,5.35
2023-07-24T18:02:13.353Z,2.53
2023-07-24T18:12:16.428Z,4.45
2023-07-24T18:22:20.828Z,2.85
2023-07-24T18:32:25.888Z,3.47
2023-07-24T18:42:29.752Z,3.97
2023-07-24T18:52:32.822Z,3.03
2023-07-24T19:02:35.638Z,3.40
2023-07-24T19:12:40.683Z,2.77
2023-07-24T19:22:43.844Z,2.97
2023-07-24T19:32:46.700Z,2.90
2023-07-24T19:42:49.719Z,2.60
2023-07-24T19:52:52.785Z,4.43
2023-07-24T20:02:57.133Z,4.50
2023-07-24T20:12:59.945Z,4.95
2023-07-24T20:23:03.561Z,3.33
2023-07-24T20:43:10.512Z,3.72
2023-07-24T20:53:13.471Z,3.43
2023-07-24T21:03:16.159Z,4.27
2023-07-24T21:13:19.500Z,3.65
2023-07-24T21:23:22.404Z,2.50
2023-07-24T21:33:25.068Z,6.47
2023-07-24T21:43:27.915Z,2.28
2023-07-24T21:53:30.798Z,4.25
2023-07-24T22:03:33.817Z,6.07
2023-07-24T22:13:36.633Z,2.60
2023-07-24T22:23:38.968Z,3.92
2023-07-24T22:33:41.314Z,4.18
2023-07-24T22:43:43.661Z,5.90
2023-07-24T22:53:46.095Z,4.22
2023-07-24T23:03:49.834Z,2.55
2023-07-24T23:13:52.506Z,4.15
2023-07-24T23:23:54.963Z,4.57
2023-07-24T23:33:57.473Z,3.03
2023-07-24T23:43:59.811Z,3.97
2023-07-24T23:54:02.213Z,2.33
